Time;durP1;ratioP1;P1;durP2;ratioP2;P2;SDS_P1;SDS_P2;PMS_P1;PMS_P2;Temp;Humidity;BMP_temperature;BMP_pressure;BME280_temperature;BME280_humidity;BME280_pressure;Samples;Min_cycle;Max_cycle;Signal;HPM_P1;HPM_P2
2023/05/04 00:00:39;;;;;;;6.00;2.08;;;11.80;99.90;;;;;;5118660;28;20034;-72
2023/05/04 00:03:04;;;;;;;4.50;2.05;;;11.70;99.90;;;;;;5105206;28;20020;-72
2023/05/04 00:05:30;;;;;;;3.08;1.70;;;11.60;99.90;;;;;;5099203;28;20035;-72
2023/05/04 00:07:56;;;;;;;8.93;2.55;;;11.60;99.90;;;;;;5099099;28;20024;-70
2023/05/04 00:10:21;;;;;;;5.47;2.05;;;11.70;99.90;;;;;;5099988;28;20051;-69
2023/05/04 00:12:47;;;;;;;9.10;2.50;;;11.50;99.90;;;;;;5099837;28;20032;-70
2023/05/04 00:15:12;;;;;;;5.97;2.40;;;11.50;99.90;;;;;;5099411;28;20028;-69
2023/05/04 00:17:38;;;;;;;8.18;2.10;;;11.30;99.90;;;;;;5098614;28;20035;-70
2023/05/04 00:20:04;;;;;;;5.15;2.25;;;11.20;99.90;;;;;;5099047;28;20016;-70
2023/05/04 00:22:31;;;;;;;12.32;2.42;;;11.10;99.90;;;;;;5098224;28;20106;-72
2023/05/04 00:24:56;;;;;;;7.55;2.58;;;11.20;99.90;;;;;;5099032;28;20020;-72
2023/05/04 00:27:22;;;;;;;3.13;1.73;;;11.30;99.90;;;;;;5098135;28;20039;-72
2023/05/04 00:29:47;;;;;;;7.95;2.70;;;11.30;99.90;;;;;;5099019;28;20035;-72
2023/05/04 00:32:13;;;;;;;7.95;2.50;;;11.30;99.90;;;;;;5099856;28;20027;-70
2023/05/04 00:34:38;;;;;;;5.90;2.80;;;11.40;99.90;;;;;;5098937;28;20031;-71
2023/05/04 00:37:05;;;;;;;4.88;2.78;;;11.30;99.90;;;;;;5098050;28;20022;-71
2023/05/04 00:39:33;;;;;;;5.57;2.83;;;11.10;99.90;;;;;;5097756;28;20024;-71
2023/05/04 00:41:59;;;;;;;9.00;3.63;;;11.10;99.90;;;;;;5097638;28;20013;-71
2023/05/04 00:44:25;;;;;;;6.38;2.60;;;11.10;99.90;;;;;;5097982;28;20023;-71
2023/05/04 00:46:54;;;;;;;8.00;2.58;;;11.00;99.90;;;;;;5098231;28;20123;-71
2023/05/04 00:49:20;;;;;;;4.95;2.85;;;11.00;99.90;;;;;;5098363;28;20047;-72
2023/05/04 00:51:47;;;;;;;4.80;2.35;;;11.10;99.90;;;;;;5098401;28;20170;-71
2023/05/04 00:54:17;;;;;;;5.38;2.22;;;11.10;99.90;;;;;;5102454;28;20032;-71
2023/05/04 00:56:43;;;;;;;5.35;2.55;;;11.00;99.90;;;;;;5098745;28;20058;-71
2023/05/04 00:59:09;;;;;;;7.03;2.95;;;11.00;99.90;;;;;;5098226;28;20028;-70
2023/05/04 01:01:35;;;;;;;7.05;2.65;;;11.10;99.90;;;;;;5097952;28;20062;-69
2023/05/04 01:04:01;;;;;;;7.07;2.83;;;11.10;99.90;;;;;;5097935;28;20079;-70
2023/05/04 01:06:46;;;;;;;6.40;2.78;;;11.00;99.90;;;;;;5098380;28;20024;-70
2023/05/04 01:09:46;;;;;;;7.65;2.20;;;11.00;99.90;;;;;;5097516;28;20032;-70
2023/05/04 01:12:28;;;;;;;12.30;2.65;;;11.00;99.90;;;;;;5041917;28;20094;-70
2023/05/04 01:14:55;;;;;;;6.18;2.75;;;10.90;99.90;;;;;;5056456;28;20025;-72
2023/05/04 01:17:21;;;;;;;5.30;2.55;;;10.90;99.90;;;;;;5041131;28;20116;-70
2023/05/04 01:19:47;;;;;;;5.53;2.70;;;10.90;99.90;;;;;;5041731;28;20056;-70
2023/05/04 01:22:12;;;;;;;4.32;2.22;;;10.90;99.90;;;;;;5061652;28;20056;-69
2023/05/04 01:24:38;;;;;;;3.92;2.50;;;10.90;99.90;;;;;;5061422;28;20025;-70
2023/05/04 01:27:18;;;;;;;4.47;2.95;;;10.90;99.90;;;;;;5040551;28;20029;-70
2023/05/04 01:30:01;;;;;;;4.38;2.53;;;10.80;99.90;;;;;;5041039;28;20033;-70
2023/05/04 01:32:28;;;;;;;4.82;2.28;;;10.70;99.90;;;;;;5039910;28;20036;-69
2023/05/04 01:34:54;;;;;;;5.47;2.53;;;10.70;99.90;;;;;;5057257;28;20068;-70
2023/05/04 01:37:20;;;;;;;4.72;2.47;;;10.50;99.90;;;;;;5039670;28;20025;-69
2023/05/04 01:39:45;;;;;;;10.20;3.35;;;10.50;99.90;;;;;;5039611;28;20025;-70
2023/05/04 01:42:11;;;;;;;6.07;2.40;;;10.50;99.90;;;;;;5056409;28;20062;-70
2023/05/04 01:44:36;;;;;;;5.28;2.30;;;10.50;99.90;;;;;;5039325;28;20024;-70
2023/05/04 01:47:02;;;;;;;7.82;2.38;;;10.60;99.90;;;;;;5056498;28;20052;-70
2023/05/04 01:49:28;;;;;;;8.63;2.65;;;10.70;99.90;;;;;;5092258;28;20028;-71
2023/05/04 01:51:53;;;;;;;3.47;3.00;;;10.60;99.90;;;;;;5097703;28;20016;-71
2023/05/04 01:54:19;;;;;;;6.50;2.80;;;10.40;99.90;;;;;;5097137;28;20035;-71
2023/05/04 01:56:44;;;;;;;7.00;2.80;;;10.40;99.90;;;;;;5097946;28;20024;-71
2023/05/04 01:59:10;;;;;;;5.90;2.75;;;10.50;99.90;;;;;;5097479;28;20115;-71
2023/05/04 02:01:36;;;;;;;5.78;2.78;;;10.50;99.90;;;;;;5097484;28;20020;-71
2023/05/04 02:04:01;;;;;;;9.55;2.97;;;10.50;99.90;;;;;;5101684;28;20031;-71
2023/05/04 02:06:27;;;;;;;5.95;2.92;;;10.40;99.90;;;;;;5097681;28;20021;-71
2023/05/04 02:08:52;;;;;;;6.40;3.20;;;10.30;99.90;;;;;;5097664;28;20032;-71
2023/05/04 02:11:18;;;;;;;6.50;3.28;;;10.30;99.90;;;;;;5098055;28;20023;-70
2023/05/04 02:13:43;;;;;;;7.53;2.90;;;10.30;99.90;;;;;;5096607;28;20024;-71
2023/05/04 02:16:09;;;;;;;4.40;2.63;;;10.30;99.90;;;;;;5096215;28;20044;-71
2023/05/04 02:18:34;;;;;;;8.05;2.92;;;10.30;99.90;;;;;;5096214;28;20092;-72
2023/05/04 02:21:00;;;;;;;8.65;2.70;;;10.30;99.90;;;;;;5096988;28;20089;-71
2023/05/04 02:23:26;;;;;;;6.32;2.60;;;10.30;99.90;;;;;;5096101;28;20028;-71
2023/05/04 02:25:53;;;;;;;5.80;2.95;;;10.30;99.90;;;;;;5097182;28;20020;-71
2023/05/04 02:28:18;;;;;;;10.30;2.88;;;10.20;99.90;;;;;;5098038;28;20043;-71
2023/05/04 02:30:44;;;;;;;7.65;3.30;;;10.20;99.90;;;;;;5100067;28;20020;-71
2023/05/04 02:33:10;;;;;;;6.38;2.60;;;10.20;99.90;;;;;;5101046;28;20031;-71
2023/05/04 02:35:35;;;;;;;4.30;2.72;;;10.10;99.90;;;;;;5100317;28;20024;-71
2023/05/04 02:38:01;;;;;;;7.85;2.88;;;10.10;99.90;;;;;;5100065;28;20025;-71
2023/05/04 02:40:26;;;;;;;7.50;3.03;;;10.00;99.90;;;;;;5099887;28;20102;-71
2023/05/04 02:42:52;;;;;;;6.65;3.30;;;9.90;99.90;;;;;;5099805;28;20027;-71
2023/05/04 02:45:17;;;;;;;5.07;2.90;;;10.00;99.90;;;;;;5100722;28;20020;-71
2023/05/04 02:47:43;;;;;;;5.75;2.60;;;10.00;99.90;;;;;;5100872;28;20070;-71
2023/05/04 02:50:09;;;;;;;5.57;2.95;;;9.90;99.90;;;;;;5101025;28;20024;-71
2023/05/04 02:52:35;;;;;;;6.78;3.13;;;10.00;99.90;;;;;;5099616;28;20036;-71
2023/05/04 02:55:02;;;;;;;5.45;2.75;;;10.00;99.90;;;;;;5099521;28;20070;-71
2023/05/04 02:57:27;;;;;;;5.22;3.55;;;10.00;99.90;;;;;;5100351;28;20032;-71
2023/05/04 02:59:53;;;;;;;8.02;2.65;;;10.00;99.90;;;;;;5099523;28;20035;-71
2023/05/04 03:02:18;;;;;;;7.65;2.90;;;9.80;99.90;;;;;;5099316;28;20030;-71
2023/05/04 03:04:44;;;;;;;5.03;2.65;;;9.70;99.90;;;;;;5099548;28;20016;-71
2023/05/04 03:07:10;;;;;;;3.22;2.90;;;9.80;99.90;;;;;;5103487;28;20042;-71
2023/05/04 03:09:36;;;;;;;6.97;3.28;;;9.60;99.90;;;;;;5100924;28;20039;-71
2023/05/04 03:12:02;;;;;;;6.00;2.65;;;9.70;99.90;;;;;;5099731;28;20024;-71
2023/05/04 03:14:28;;;;;;;5.05;2.72;;;9.30;99.90;;;;;;5099416;28;20028;-71
2023/05/04 03:16:53;;;;;;;5.18;2.70;;;9.50;99.90;;;;;;5099129;28;20024;-71
2023/05/04 03:19:20;;;;;;;9.02;2.80;;;9.50;99.90;;;;;;5098985;28;20095;-71
2023/05/04 03:21:46;;;;;;;6.65;2.60;;;9.50;99.90;;;;;;5099194;28;20050;-71
2023/05/04 03:24:12;;;;;;;7.50;2.83;;;9.50;99.90;;;;;;5100058;28;20020;-71
2023/05/04 03:26:37;;;;;;;5.70;2.65;;;9.50;99.90;;;;;;5098912;28;20020;-71
2023/05/04 03:29:03;;;;;;;6.18;3.00;;;9.30;99.90;;;;;;5099010;28;20024;-71
2023/05/04 03:31:29;;;;;;;3.70;2.72;;;9.30;99.90;;;;;;5099743;28;20050;-71
2023/05/04 03:33:54;;;;;;;5.75;2.72;;;9.30;99.90;;;;;;5098786;28;20013;-71
2023/05/04 03:36:20;;;;;;;8.23;3.10;;;9.30;99.90;;;;;;5098817;28;20016;-71
2023/05/04 03:38:45;;;;;;;5.80;2.97;;;9.40;99.90;;;;;;5098530;28;20016;-71
2023/05/04 03:41:11;;;;;;;4.65;2.78;;;9.50;99.90;;;;;;5098605;28;20031;-71
2023/05/04 03:43:37;;;;;;;5.80;3.15;;;9.50;99.90;;;;;;5100697;28;20016;-71
2023/05/04 03:46:03;;;;;;;6.60;2.65;;;9.50;99.90;;;;;;5098543;28;20126;-71
2023/05/04 03:48:28;;;;;;;5.50;2.28;;;9.30;99.90;;;;;;5098699;28;20024;-71
2023/05/04 03:50:54;;;;;;;6.97;3.28;;;9.30;99.90;;;;;;5099443;28;20069;-71
2023/05/04 03:53:20;;;;;;;6.70;2.63;;;9.40;99.90;;;;;;5099472;28;20114;-71
2023/05/04 03:55:45;;;;;;;7.10;2.85;;;9.30;99.90;;;;;;5098680;28;20102;-71
2023/05/04 03:58:11;;;;;;;5.65;2.75;;;9.10;99.90;;;;;;5098849;28;20085;-71
2023/05/04 04:00:36;;;;;;;5.88;2.85;;;8.90;99.90;;;;;;5098354;28;20020;-71
2023/05/04 04:03:02;;;;;;;10.43;2.80;;;9.20;99.90;;;;;;5098391;28;20024;-71
2023/05/04 04:05:27;;;;;;;10.70;3.25;;;9.20;99.90;;;;;;5099484;28;20089;-71
2023/05/04 04:07:53;;;;;;;6.13;2.70;;;9.30;99.90;;;;;;5101152;28;20016;-71
2023/05/04 04:10:18;;;;;;;4.57;2.72;;;9.30;99.90;;;;;;5098127;28;20024;-71
2023/05/04 04:12:44;;;;;;;3.97;2.65;;;9.20;99.90;;;;;;5100175;28;20028;-70
2023/05/04 04:15:09;;;;;;;7.95;3.08;;;9.20;99.90;;;;;;5097997;28;20028;-71
2023/05/04 04:17:35;;;;;;;5.85;3.05;;;9.10;99.90;;;;;;5098034;28;20035;-71
2023/05/04 04:20:00;;;;;;;6.28;2.80;;;9.30;99.90;;;;;;5098876;28;20049;-71
2023/05/04 04:22:26;;;;;;;13.65;3.10;;;9.10;99.90;;;;;;5098977;28;20059;-71
2023/05/04 04:24:52;;;;;;;9.90;3.05;;;9.00;99.90;;;;;;5098072;28;20111;-71
2023/05/04 04:27:18;;;;;;;4.45;2.90;;;9.10;99.90;;;;;;5097967;28;20055;-71
2023/05/04 04:29:43;;;;;;;5.38;2.85;;;9.00;99.90;;;;;;5097774;28;20077;-71
2023/05/04 04:32:09;;;;;;;6.00;3.00;;;9.30;99.90;;;;;;5098745;28;20032;-72
2023/05/04 04:34:35;;;;;;;12.63;3.58;;;9.40;99.90;;;;;;5098854;28;20095;-71
2023/05/04 04:37:00;;;;;;;11.77;2.90;;;9.40;99.90;;;;;;5098290;28;20124;-71
2023/05/04 04:39:26;;;;;;;5.07;3.15;;;9.50;99.90;;;;;;5097642;28;20024;-71
2023/05/04 04:41:52;;;;;;;6.18;3.25;;;9.60;99.90;;;;;;5097417;28;20028;-71
2023/05/04 04:44:17;;;;;;;6.80;3.13;;;9.60;99.90;;;;;;5097696;28;20043;-71
2023/05/04 04:46:44;;;;;;;5.32;2.80;;;9.50;99.90;;;;;;5097539;28;20020;-71
2023/05/04 04:49:11;;;;;;;9.40;2.80;;;9.50;99.90;;;;;;5098659;28;20021;-71
2023/05/04 04:51:37;;;;;;;7.90;3.17;;;9.30;99.90;;;;;;5096497;28;20024;-71
2023/05/04 04:54:03;;;;;;;8.65;3.53;;;9.30;99.90;;;;;;5097351;28;20028;-71
2023/05/04 04:56:28;;;;;;;11.05;3.60;;;9.40;99.90;;;;;;5098046;28;20024;-71
2023/05/04 04:58:54;;;;;;;5.82;2.78;;;9.50;99.90;;;;;;5097120;28;20046;-70
2023/05/04 05:01:19;;;;;;;7.30;3.40;;;9.40;99.90;;;;;;5097139;28;20110;-70
2023/05/04 05:03:45;;;;;;;6.32;3.13;;;9.40;99.90;;;;;;5097900;28;20051;-70
2023/05/04 05:06:13;;;;;;;9.13;3.20;;;9.50;99.90;;;;;;5097195;28;20046;-70
2023/05/04 05:08:38;;;;;;;5.70;3.20;;;9.60;99.90;;;;;;5097842;28;20063;-70
2023/05/04 05:11:04;;;;;;;4.70;2.70;;;9.40;99.90;;;;;;5097894;28;20060;-70
2023/05/04 05:13:30;;;;;;;6.85;3.63;;;9.20;99.90;;;;;;5097190;28;20016;-70
2023/05/04 05:15:56;;;;;;;8.40;3.42;;;9.40;99.90;;;;;;5096897;28;20073;-69
2023/05/04 05:18:22;;;;;;;13.98;4.05;;;9.30;99.90;;;;;;5098177;28;20103;-70
2023/05/04 05:20:48;;;;;;;8.02;3.15;;;9.20;99.90;;;;;;5096629;28;20081;-70
2023/05/04 05:23:13;;;;;;;7.57;3.35;;;9.10;99.90;;;;;;5096626;28;20020;-70
2023/05/04 05:25:39;;;;;;;6.50;2.90;;;9.30;99.90;;;;;;5096749;28;20072;-70
2023/05/04 05:28:05;;;;;;;8.50;3.53;;;9.30;99.90;;;;;;5097042;28;20027;-70
2023/05/04 05:30:30;;;;;;;3.72;2.67;;;9.40;99.90;;;;;;5096852;28;20017;-70
2023/05/04 05:32:56;;;;;;;7.82;3.03;;;9.50;99.90;;;;;;5096560;28;20115;-70
2023/05/04 05:35:21;;;;;;;5.72;3.03;;;9.60;99.90;;;;;;5096562;28;20043;-69
2023/05/04 05:37:48;;;;;;;5.60;3.35;;;9.80;99.90;;;;;;5096626;28;20031;-70
2023/05/04 05:40:14;;;;;;;6.32;3.95;;;9.90;99.90;;;;;;5097643;28;20031;-71
2023/05/04 05:42:41;;;;;;;15.43;3.55;;;10.00;99.90;;;;;;5096474;28;20031;-71
2023/05/04 05:45:09;;;;;;;11.55;3.60;;;10.10;99.90;;;;;;5097590;28;20047;-71
2023/05/04 05:47:35;;;;;;;6.97;2.95;;;10.20;99.90;;;;;;5097495;28;20027;-71
2023/05/04 05:50:05;;;;;;;10.25;3.38;;;10.20;99.90;;;;;;5097629;28;20107;-71
2023/05/04 05:52:30;;;;;;;8.95;2.67;;;10.20;99.90;;;;;;5123478;22;20092;-75
2023/05/04 05:54:56;;;;;;;7.07;3.78;;;10.30;99.90;;;;;;5117051;28;20122;-74
2023/05/04 05:57:21;;;;;;;9.70;3.75;;;10.20;99.90;;;;;;5117462;28;20251;-74
2023/05/04 05:59:47;;;;;;;6.18;3.40;;;10.30;99.90;;;;;;5117380;28;20031;-73
2023/05/04 06:02:13;;;;;;;4.60;3.20;;;10.40;99.90;;;;;;5120082;28;20016;-74
2023/05/04 06:04:40;;;;;;;11.15;4.00;;;10.20;99.90;;;;;;5123374;28;20058;-73
2023/05/04 06:07:06;;;;;;;5.40;3.08;;;10.10;99.90;;;;;;5123513;28;20020;-74
2023/05/04 06:09:31;;;;;;;7.63;4.35;;;10.20;99.90;;;;;;5124428;28;20038;-75
2023/05/04 06:11:57;;;;;;;8.90;3.72;;;10.30;99.90;;;;;;5124716;27;20052;-74
2023/05/04 06:14:23;;;;;;;8.90;3.50;;;10.30;99.90;;;;;;5124249;28;20026;-74
2023/05/04 06:16:48;;;;;;;8.23;4.28;;;10.40;99.90;;;;;;5123615;28;20020;-74
2023/05/04 06:19:14;;;;;;;15.80;3.88;;;10.40;99.90;;;;;;5123276;28;20049;-75
2023/05/04 06:21:39;;;;;;;7.82;3.78;;;10.40;99.90;;;;;;5124347;28;20019;-74
2023/05/04 06:24:05;;;;;;;9.02;3.83;;;10.40;99.90;;;;;;5124208;27;20027;-74
2023/05/04 06:26:31;;;;;;;7.72;3.17;;;10.20;99.90;;;;;;5123375;28;20110;-74
2023/05/04 06:28:57;;;;;;;14.13;3.67;;;10.30;99.90;;;;;;5123590;28;20020;-74
2023/05/04 06:31:23;;;;;;;8.75;3.90;;;10.50;99.90;;;;;;5123203;28;20024;-74
2023/05/04 06:33:49;;;;;;;9.75;4.53;;;10.40;99.90;;;;;;5124124;28;20016;-74
2023/05/04 06:36:14;;;;;;;7.80;3.78;;;10.50;99.90;;;;;;5124004;27;20055;-74
2023/05/04 06:38:40;;;;;;;7.93;4.00;;;10.70;99.90;;;;;;5123265;28;20031;-74
2023/05/04 06:41:06;;;;;;;7.55;3.80;;;10.80;99.90;;;;;;5123070;28;20023;-74
2023/05/04 06:43:32;;;;;;;11.88;3.25;;;10.80;99.90;;;;;;5123433;28;20107;-74
2023/05/04 06:46:02;;;;;;;9.32;3.55;;;10.90;99.90;;;;;;5123003;28;20027;-74
2023/05/04 06:48:28;;;;;;;11.20;3.63;;;11.10;99.90;;;;;;5124086;27;20081;-74
2023/05/04 06:50:54;;;;;;;10.13;3.30;;;11.10;99.90;;;;;;5123117;28;20027;-74
2023/05/04 06:53:20;;;;;;;7.07;3.30;;;11.10;99.90;;;;;;5123349;28;20038;-74
2023/05/04 06:55:46;;;;;;;8.30;3.35;;;11.20;99.90;;;;;;5123930;28;20101;-74
2023/05/04 06:58:11;;;;;;;6.47;3.55;;;11.30;99.90;;;;;;5122935;28;20067;-74
2023/05/04 07:00:37;;;;;;;5.85;3.28;;;11.30;99.90;;;;;;5123078;28;20118;-74
2023/05/04 07:03:03;;;;;;;8.75;3.83;;;11.30;99.90;;;;;;5123045;28;20023;-74
2023/05/04 07:05:29;;;;;;;19.30;3.28;;;11.40;99.90;;;;;;5122819;28;20016;-75
2023/05/04 07:07:54;;;;;;;6.60;3.42;;;11.40;99.90;;;;;;5124512;28;20068;-74
2023/05/04 07:10:20;;;;;;;4.90;3.03;;;11.60;99.90;;;;;;5123029;28;20080;-74
2023/05/04 07:12:46;;;;;;;5.90;3.20;;;11.60;99.90;;;;;;5122499;28;20051;-74
2023/05/04 07:15:12;;;;;;;9.75;3.17;;;11.70;99.90;;;;;;5119471;28;20065;-74
2023/05/04 07:17:38;;;;;;;8.02;3.88;;;11.80;99.90;;;;;;5120859;28;20103;-74
2023/05/04 07:20:05;;;;;;;8.25;3.90;;;11.90;99.90;;;;;;5119452;28;20031;-74
2023/05/04 07:22:31;;;;;;;10.35;3.50;;;11.90;99.90;;;;;;5120193;28;20027;-74
2023/05/04 07:24:57;;;;;;;7.50;3.75;;;11.80;99.90;;;;;;5119929;28;20024;-74
2023/05/04 07:27:23;;;;;;;5.68;3.63;;;12.00;99.90;;;;;;5119434;28;20015;-74
2023/05/04 07:29:52;;;;;;;8.32;3.70;;;12.10;99.90;;;;;;5120194;28;20153;-75
2023/05/04 07:32:18;;;;;;;7.55;3.17;;;12.30;99.90;;;;;;5119874;28;20024;-74
2023/05/04 07:34:44;;;;;;;9.60;3.60;;;12.30;99.90;;;;;;5119569;28;20019;-74
2023/05/04 07:37:10;;;;;;;12.75;3.95;;;12.50;99.90;;;;;;5120108;28;20027;-74
2023/05/04 07:39:37;;;;;;;5.30;3.10;;;12.40;99.90;;;;;;5119524;28;20026;-74
2023/05/04 07:42:03;;;;;;;7.22;3.38;;;12.60;99.90;;;;;;5118981;28;20030;-74
2023/05/04 07:44:30;;;;;;;10.43;3.63;;;12.90;99.90;;;;;;5119425;28;20015;-74
2023/05/04 07:46:57;;;;;;;8.60;4.13;;;13.00;99.90;;;;;;5120019;28;20073;-74
2023/05/04 07:49:22;;;;;;;10.68;4.18;;;13.10;99.90;;;;;;5118985;28;20027;-74
2023/05/04 07:51:48;;;;;;;13.43;3.72;;;13.10;99.90;;;;;;5119304;28;20044;-74
2023/05/04 07:54:14;;;;;;;7.72;3.72;;;13.20;99.90;;;;;;5118768;28;20076;-74
2023/05/04 07:56:40;;;;;;;18.13;4.43;;;13.20;99.90;;;;;;5118957;28;20133;-74
2023/05/04 07:59:05;;;;;;;8.93;3.90;;;13.20;99.90;;;;;;5118702;28;20031;-74
2023/05/04 08:01:31;;;;;;;9.75;3.72;;;13.30;99.90;;;;;;5118681;28;20015;-74
2023/05/04 08:03:56;;;;;;;13.27;4.07;;;13.50;99.90;;;;;;5119588;28;20107;-75
2023/05/04 08:06:22;;;;;;;9.02;4.10;;;13.60;99.90;;;;;;5119405;28;20065;-74
2023/05/04 08:08:48;;;;;;;5.63;3.80;;;13.70;99.90;;;;;;5119582;28;20020;-75
2023/05/04 08:11:15;;;;;;;8.50;4.38;;;13.80;99.90;;;;;;5118562;28;20045;-75
2023/05/04 08:13:40;;;;;;;6.80;3.60;;;13.90;99.90;;;;;;5118394;28;20019;-74
2023/05/04 08:16:08;;;;;;;10.65;5.20;;;14.00;99.90;;;;;;5118507;28;20081;-74
2023/05/04 08:18:33;;;;;;;10.73;5.10;;;14.10;99.90;;;;;;5118380;28;20024;-75
2023/05/04 08:20:59;;;;;;;7.25;3.75;;;14.10;99.90;;;;;;5118401;28;20030;-74
2023/05/04 08:23:24;;;;;;;11.75;4.13;;;14.20;99.90;;;;;;5119850;28;20062;-74
2023/05/04 08:25:51;;;;;;;7.32;3.42;;;14.30;99.90;;;;;;5116967;28;20026;-75
2023/05/04 08:28:17;;;;;;;5.13;3.92;;;14.40;99.90;;;;;;5118551;28;20023;-75
2023/05/04 08:30:42;;;;;;;9.00;3.95;;;14.60;99.90;;;;;;5118219;28;20027;-74
2023/05/04 08:33:08;;;;;;;7.10;3.83;;;14.70;99.90;;;;;;5119038;28;20058;-74
2023/05/04 08:35:34;;;;;;;5.15;3.55;;;14.80;99.90;;;;;;5118123;28;20024;-74
2023/05/04 08:38:01;;;;;;;5.60;3.38;;;14.90;99.90;;;;;;5118275;28;20023;-74
2023/05/04 08:40:26;;;;;;;5.57;3.72;;;15.00;99.90;;;;;;5118753;28;20023;-74
2023/05/04 08:42:52;;;;;;;8.18;3.63;;;15.20;99.90;;;;;;5117841;28;20027;-74
2023/05/04 08:45:18;;;;;;;7.70;4.45;;;15.20;99.90;;;;;;5117828;28;20107;-74
2023/05/04 08:47:43;;;;;;;5.60;3.25;;;15.30;99.90;;;;;;5118077;28;20118;-75
2023/05/04 08:50:10;;;;;;;12.88;3.88;;;15.30;99.90;;;;;;5118081;28;20031;-75
2023/05/04 08:52:37;;;;;;;8.25;3.80;;;15.40;99.90;;;;;;5117734;28;20027;-72
2023/05/04 08:55:05;;;;;;;7.22;3.63;;;15.50;99.90;;;;;;5118620;28;20031;-72
2023/05/04 08:57:32;;;;;;;7.80;3.65;;;15.60;99.90;;;;;;5118406;28;20039;-72
2023/05/04 08:59:59;;;;;;;4.75;3.45;;;15.90;99.90;;;;;;5117680;28;20028;-74
2023/05/04 09:02:26;;;;;;;9.88;3.88;;;16.20;99.90;;;;;;5117396;28;20066;-75
2023/05/04 09:04:53;;;;;;;10.15;3.85;;;16.50;99.90;;;;;;5117524;28;20020;-74
2023/05/04 09:07:19;;;;;;;10.40;3.78;;;16.40;99.90;;;;;;5117712;28;20024;-75
2023/05/04 09:09:46;;;;;;;8.70;3.60;;;16.40;99.90;;;;;;5117576;28;20034;-75
2023/05/04 09:12:12;;;;;;;6.05;3.15;;;16.40;99.90;;;;;;5117319;28;20027;-75
2023/05/04 09:14:38;;;;;;;9.70;3.40;;;16.40;99.90;;;;;;5117307;28;20027;-75
2023/05/04 09:17:15;;;;;;;7.10;3.40;;;16.50;99.90;;;;;;5117345;28;20019;-75
2023/05/04 09:19:42;;;;;;;7.70;3.40;;;16.80;99.90;;;;;;5117275;28;20082;-75
2023/05/04 09:22:18;;;;;;;8.25;3.70;;;17.00;99.90;;;;;;5118149;28;20049;-75
2023/05/04 09:24:44;;;;;;;5.88;3.08;;;17.10;99.90;;;;;;5117943;28;20098;-75
2023/05/04 09:27:17;;;;;;;9.20;3.25;;;17.10;99.90;;;;;;5117661;28;20020;-74
2023/05/04 09:29:43;;;;;;;5.65;3.17;;;17.40;99.90;;;;;;5117365;28;20028;-75
2023/05/04 09:32:14;;;;;;;6.22;2.90;;;17.40;99.90;;;;;;5117776;28;20026;-74
2023/05/04 09:35:06;;;;;;;3.80;2.70;;;17.50;99.90;;;;;;5118140;28;20016;-74
2023/05/04 09:37:42;;;;;;;6.32;2.88;;;17.70;99.90;;;;;;5114976;28;20057;-74
2023/05/04 09:40:09;;;;;;;4.90;3.10;;;17.70;99.90;;;;;;5117986;28;20020;-75
2023/05/04 09:42:34;;;;;;;7.70;3.35;;;17.80;99.90;;;;;;5117027;28;20104;-74
2023/05/04 09:45:06;;;;;;;5.13;3.47;;;18.00;99.90;;;;;;5117081;28;20024;-74
2023/05/04 09:47:36;;;;;;;6.22;2.95;;;18.10;99.90;;;;;;5116740;28;20019;-74
2023/05/04 09:50:13;;;;;;;6.32;3.03;;;18.00;99.90;;;;;;5117953;28;20108;-75
2023/05/04 09:52:40;;;;;;;4.93;2.90;;;18.50;99.90;;;;;;5117747;28;20024;-74
2023/05/04 09:55:09;;;;;;;6.50;3.30;;;18.70;99.90;;;;;;5117702;28;20020;-75
2023/05/04 09:57:35;;;;;;;7.35;3.08;;;19.00;99.90;;;;;;5116877;28;20031;-74
2023/05/04 10:00:03;;;;;;;4.93;2.88;;;19.10;99.90;;;;;;5116805;28;20024;-75
2023/05/04 10:02:31;;;;;;;5.82;3.10;;;19.20;99.90;;;;;;5116622;28;20057;-74
2023/05/04 10:04:57;;;;;;;10.43;2.97;;;19.10;99.90;;;;;;5116963;28;20016;-74
2023/05/04 10:07:23;;;;;;;3.70;2.60;;;19.10;99.90;;;;;;5117395;28;20055;-74
2023/05/04 10:09:50;;;;;;;5.50;3.15;;;19.30;99.90;;;;;;5117490;28;20020;-74
2023/05/04 10:12:16;;;;;;;7.30;3.50;;;19.30;99.90;;;;;;5117392;28;20089;-74
2023/05/04 10:14:45;;;;;;;5.05;3.38;;;19.20;99.90;;;;;;5116935;28;20031;-74
2023/05/04 10:17:26;;;;;;;5.43;3.17;;;19.30;99.90;;;;;;5117455;28;20032;-74
2023/05/04 10:20:27;;;;;;;6.30;3.10;;;19.40;99.90;;;;;;5117053;28;20095;-75
2023/05/04 10:23:28;;;;;;;7.13;3.63;;;19.50;99.90;;;;;;5116093;28;20119;-75
2023/05/04 10:25:54;;;;;;;8.07;3.30;;;19.70;99.90;;;;;;5116564;28;20032;-74
2023/05/04 10:28:31;;;;;;;8.73;3.47;;;20.10;99.90;;;;;;5116699;28;20027;-75
2023/05/04 10:30:57;;;;;;;8.60;4.15;;;20.20;99.90;;;;;;5117645;28;20024;-74
2023/05/04 10:33:24;;;;;;;5.53;2.97;;;20.10;99.90;;;;;;5116892;28;20032;-75
2023/05/04 10:35:53;;;;;;;8.93;4.18;;;20.50;99.90;;;;;;5116366;28;20023;-75
2023/05/04 10:38:30;;;;;;;8.40;3.80;;;20.80;99.70;;;;;;5116400;28;20057;-76
2023/05/04 10:40:56;;;;;;;7.38;4.03;;;21.10;99.90;;;;;;5116768;28;20020;-75
2023/05/04 10:43:25;;;;;;;5.80;3.80;;;22.10;98.40;;;;;;5116174;28;20015;-75
2023/05/04 10:45:51;;;;;;;6.88;3.72;;;22.50;96.90;;;;;;5117079;28;20023;-76
2023/05/04 10:48:16;;;;;;;6.13;3.70;;;22.70;95.70;;;;;;5117272;28;20020;-76
2023/05/04 10:50:47;;;;;;;7.30;3.42;;;22.30;94.80;;;;;;5120925;28;20028;-76
2023/05/04 10:53:14;;;;;;;4.67;3.20;;;22.80;93.60;;;;;;5121084;28;20118;-76
2023/05/04 10:55:42;;;;;;;5.15;3.15;;;23.00;92.80;;;;;;5120766;28;20280;-76
2023/05/04 10:58:09;;;;;;;4.53;3.28;;;23.00;92.50;;;;;;5121183;28;20062;-76
2023/05/04 11:00:40;;;;;;;9.30;3.80;;;23.50;91.30;;;;;;5119867;28;20032;-76
2023/05/04 11:03:06;;;;;;;7.55;4.15;;;23.90;90.40;;;;;;5119824;28;20020;-76
2023/05/04 11:05:46;;;;;;;4.53;3.38;;;23.90;89.50;;;;;;5120831;28;20095;-76
2023/05/04 11:08:25;;;;;;;4.88;2.90;;;23.90;88.80;;;;;;5119830;28;20019;-76
2023/05/04 11:11:02;;;;;;;14.43;3.97;;;24.20;87.90;;;;;;5120701;28;20024;-75
2023/05/04 11:13:33;;;;;;;4.13;3.33;;;23.20;87.80;;;;;;5119623;28;20033;-76
2023/05/04 11:15:59;;;;;;;4.15;2.80;;;23.40;89.50;;;;;;5119961;28;20020;-75
2023/05/04 11:18:29;;;;;;;5.85;3.60;;;24.30;86.20;;;;;;5119669;28;20039;-76
2023/05/04 11:20:56;;;;;;;4.65;3.10;;;24.40;84.50;;;;;;5120502;28;20020;-76
2023/05/04 11:23:22;;;;;;;3.97;3.25;;;24.20;84.60;;;;;;5119759;28;20062;-76
2023/05/04 11:25:47;;;;;;;8.27;3.85;;;23.30;86.40;;;;;;5120511;28;20023;-75
2023/05/04 11:28:13;;;;;;;10.50;3.40;;;22.50;89.10;;;;;;5119595;28;20028;-76
2023/05/04 11:30:40;;;;;;;5.43;3.72;;;22.60;89.80;;;;;;5119395;28;20031;-75
2023/05/04 11:33:11;;;;;;;9.65;3.40;;;22.20;90.60;;;;;;5119456;28;20119;-75
2023/05/04 11:35:37;;;;;;;8.20;4.43;;;22.30;90.30;;;;;;5119311;28;20030;-75
2023/05/04 11:38:02;;;;;;;10.32;3.30;;;22.50;90.10;;;;;;5119714;28;20118;-76
2023/05/04 11:40:28;;;;;;;5.00;3.40;;;22.40;88.90;;;;;;5118996;28;20023;-75
2023/05/04 11:42:56;;;;;;;7.47;3.28;;;22.40;90.00;;;;;;5119038;28;20054;-75
2023/05/04 11:45:31;;;;;;;5.82;2.90;;;22.40;90.00;;;;;;5119139;28;20106;-75
2023/05/04 11:47:57;;;;;;;6.65;3.40;;;22.80;90.10;;;;;;5119850;28;20024;-76
2023/05/04 11:50:24;;;;;;;4.95;3.13;;;23.00;88.70;;;;;;5119344;28;20024;-75
2023/05/04 11:52:50;;;;;;;4.95;3.40;;;22.80;88.70;;;;;;5120621;28;20032;-76
2023/05/04 11:55:26;;;;;;;4.63;2.78;;;22.70;88.70;;;;;;5118873;28;20024;-77
2023/05/04 11:58:00;;;;;;;4.60;2.97;;;23.10;88.70;;;;;;5120038;27;20056;-77
2023/05/04 12:00:45;;;;;;;4.18;2.72;;;23.60;88.30;;;;;;5118822;28;20020;-77
2023/05/04 12:03:16;;;;;;;4.50;3.10;;;23.90;85.70;;;;;;5119352;28;20024;-77
2023/05/04 12:05:55;;;;;;;;;;;24.30;84.50;;;;;;5119930;28;20024;-78
2023/05/04 12:08:26;;;;;;;4.25;2.83;;;23.90;84.40;;;;;;5118709;28;19910;-77
2023/05/04 12:11:12;;;;;;;4.45;2.88;;;24.10;83.40;;;;;;5118628;28;20027;-77
2023/05/04 12:13:39;;;;;;;5.65;3.13;;;24.40;81.60;;;;;;5118638;28;20059;-77
2023/05/04 12:16:18;;;;;;;3.70;2.90;;;24.20;82.40;;;;;;5119404;28;20103;-77
2023/05/04 12:18:44;;;;;;;5.47;2.85;;;25.30;82.20;;;;;;5118611;28;20031;-77
2023/05/04 12:21:18;;;;;;;4.65;2.97;;;25.10;78.60;;;;;;5118298;28;20030;-77
2023/05/04 12:23:44;;;;;;;3.65;2.83;;;24.30;79.40;;;;;;5118505;28;20023;-77
2023/05/04 12:26:11;;;;;;;10.13;5.63;;;24.10;80.70;;;;;;5118787;28;20068;-77
2023/05/04 12:28:38;;;;;;;6.22;3.60;;;24.50;80.60;;;;;;5119008;28;20016;-77
2023/05/04 12:31:04;;;;;;;7.57;3.75;;;24.70;83.40;;;;;;5118582;28;20029;-77
2023/05/04 12:33:33;;;;;;;4.20;2.75;;;24.90;78.90;;;;;;5118588;28;20024;-77
2023/05/04 12:36:03;;;;;;;6.03;3.47;;;24.90;80.70;;;;;;5118123;28;20096;-77
2023/05/04 12:38:29;;;;;;;5.80;2.80;;;25.10;79.90;;;;;;5119329;28;20026;-77
2023/05/04 12:40:57;;;;;;;7.90;3.22;;;25.40;80.00;;;;;;5118311;28;20028;-77
2023/05/04 12:43:23;;;;;;;4.00;2.22;;;25.30;78.30;;;;;;5117858;28;20048;-77
2023/05/04 12:45:49;;;;;;;5.20;3.25;;;25.90;78.20;;;;;;5118876;27;20043;-77
2023/05/04 12:48:15;;;;;;;5.78;2.90;;;25.60;75.70;;;;;;5117903;28;20019;-77